Time;durP1;ratioP1;P1;durP2;ratioP2;P2;SDS_P1;SDS_P2;PMS_P1;PMS_P2;Temp;Humidity;BMP_temperature;BMP_pressure;BME280_temperature;BME280_humidity;BME280_pressure;Samples;Min_cycle;Max_cycle;Signal;HPM_P1;HPM_P2
2022/03/25 00:00:14;;;;;;;28.97;11.73;;;;;4.40;97191.00;;;;8383560;28;20303;-74
2022/03/25 00:04:17;;;;;;;25.13;13.07;;;;;4.30;97177.00;;;;8381382;28;20303;-77
2022/03/25 00:08:20;;;;;;;29.37;12.40;;;;;4.20;97183.00;;;;8381458;28;20223;-68
2022/03/25 00:12:26;;;;;;;29.87;12.87;;;;;4.20;97174.00;;;;8383486;28;20279;-73
2022/03/25 00:16:29;;;;;;;30.43;12.57;;;;;4.20;97176.00;;;;8381218;28;20279;-73
2022/03/25 00:20:32;;;;;;;30.33;13.30;;;;;4.20;97175.00;;;;8379498;28;20224;-70
2022/03/25 00:24:36;;;;;;;28.40;12.73;;;;;4.20;97176.00;;;;8382126;28;20228;-85
2022/03/25 00:28:41;;;;;;;25.40;12.40;;;;;4.30;97173.00;;;;8382251;28;20260;-70
2022/03/25 00:32:44;;;;;;;28.00;11.83;;;;;4.30;97175.00;;;;8380737;28;20242;-78
2022/03/25 00:36:47;;;;;;;29.43;12.57;;;;;4.30;97171.00;;;;8383481;28;20324;-71
2022/03/25 00:40:51;;;;;;;26.57;12.17;;;;;4.20;97161.00;;;;8380813;28;20228;-71
2022/03/25 00:44:55;;;;;;;28.20;12.23;;;;;4.10;97167.00;;;;8380411;28;20231;-77
2022/03/25 00:48:59;;;;;;;25.37;12.60;;;;;3.90;97168.00;;;;8380068;28;20227;-73
2022/03/25 00:53:02;;;;;;;29.07;13.27;;;;;3.80;97165.00;;;;8381162;28;20295;-70
2022/03/25 00:57:05;;;;;;;24.33;11.83;;;;;3.60;97162.00;;;;8382485;28;20244;-71
2022/03/25 01:01:10;;;;;;;32.00;12.77;;;;;3.30;97154.00;;;;8372282;28;20235;-75
2022/03/25 01:05:14;;;;;;;29.53;13.53;;;;;3.20;97157.00;;;;8380746;28;20287;-71
2022/03/25 01:09:17;;;;;;;32.90;14.07;;;;;3.10;97153.00;;;;8383212;28;20263;-72
2022/03/25 01:13:20;;;;;;;30.63;14.47;;;;;3.20;97150.00;;;;8381333;28;20239;-70
2022/03/25 01:17:27;;;;;;;33.93;14.83;;;;;3.30;97151.00;;;;8381955;28;20776;-72
2022/03/25 01:21:30;;;;;;;39.43;16.67;;;;;3.40;97142.00;;;;8380085;28;20240;-72
2022/03/25 01:25:33;;;;;;;47.83;20.03;;;;;3.70;97146.00;;;;8380276;28;20224;-71
2022/03/25 01:29:37;;;;;;;36.70;15.40;;;;;4.00;97144.00;;;;8380235;28;20223;-74
2022/03/25 01:33:42;;;;;;;35.57;15.40;;;;;3.90;97152.00;;;;8379585;28;20259;-72
2022/03/25 01:37:45;;;;;;;30.33;13.90;;;;;3.80;97148.00;;;;8379191;28;20741;-71
2022/03/25 01:41:48;;;;;;;32.00;14.83;;;;;3.50;97142.00;;;;8379748;28;20320;-76
2022/03/25 01:45:52;;;;;;;37.53;15.93;;;;;3.40;97134.00;;;;8379774;28;20313;-68
2022/03/25 01:49:56;;;;;;;33.23;14.47;;;;;3.30;97146.00;;;;8372478;28;20223;-69
2022/03/25 01:54:02;;;;;;;34.37;14.37;;;;;3.20;97137.00;;;;8374176;28;20236;-68
2022/03/25 01:58:06;;;;;;;31.80;14.07;;;;;3.00;97125.00;;;;8379476;28;20232;-70
2022/03/25 02:02:10;;;;;;;33.20;14.47;;;;;2.90;97138.00;;;;8379032;28;20585;-70
2022/03/25 02:06:14;;;;;;;33.70;14.30;;;;;2.90;97139.00;;;;8377675;28;20262;-69
2022/03/25 02:10:18;;;;;;;32.63;14.37;;;;;2.80;97130.00;;;;8379070;28;20797;-70
2022/03/25 02:14:23;;;;;;;38.37;15.93;;;;;2.70;97126.00;;;;8377828;28;20307;-67
2022/03/25 02:18:26;;;;;;;42.47;17.20;;;;;2.70;97131.00;;;;8378476;28;20220;-69
2022/03/25 02:22:31;;;;;;;36.63;15.63;;;;;2.90;97130.00;;;;8381474;28;20278;-69
2022/03/25 02:26:35;;;;;;;36.27;16.40;;;;;3.00;97127.00;;;;8381409;28;20863;-71
2022/03/25 02:30:39;;;;;;;38.17;16.43;;;;;3.10;97120.00;;;;8380144;28;20239;-68
2022/03/25 02:34:42;;;;;;;36.23;14.60;;;;;3.10;97124.00;;;;8380593;28;20227;-70
2022/03/25 02:38:46;;;;;;;33.37;14.80;;;;;3.00;97126.00;;;;8375436;28;20236;-69
2022/03/25 02:42:49;;;;;;;37.90;16.00;;;;;2.90;97129.00;;;;8377535;28;20223;-69
2022/03/25 02:46:53;;;;;;;34.37;15.77;;;;;2.80;97136.00;;;;8379807;28;20464;-74
2022/03/25 02:50:56;;;;;;;36.27;15.23;;;;;2.70;97130.00;;;;8380915;28;20975;-72
2022/03/25 02:55:00;;;;;;;39.70;16.50;;;;;2.80;97124.00;;;;8366273;28;20625;-70
2022/03/25 02:59:03;;;;;;;33.97;16.00;;;;;2.70;97128.00;;;;8371626;28;20273;-68
2022/03/25 03:03:08;;;;;;;34.83;15.87;;;;;2.70;97136.00;;;;8399675;22;20282;-68
2022/03/25 03:07:11;;;;;;;40.37;16.40;;;;;2.70;97136.00;;;;8369452;28;20228;-71
2022/03/25 03:11:16;;;;;;;36.67;15.67;;;;;2.50;97127.00;;;;8362415;28;20698;-69
2022/03/25 03:15:20;;;;;;;36.80;15.30;;;;;2.40;97127.00;;;;8364725;28;20680;-69
2022/03/25 03:19:24;;;;;;;39.37;16.13;;;;;2.40;97124.00;;;;8366778;28;20219;-69
2022/03/25 03:23:27;;;;;;;39.67;16.73;;;;;2.30;97129.00;;;;8365449;28;20320;-72
2022/03/25 03:27:32;;;;;;;39.00;16.10;;;;;2.30;97133.00;;;;8362967;28;20228;-69
2022/03/25 03:31:35;;;;;;;38.83;15.70;;;;;2.30;97130.00;;;;8356890;28;20307;-70
2022/03/25 03:35:39;;;;;;;38.93;15.87;;;;;2.30;97139.00;;;;8367406;28;20266;-69
2022/03/25 03:39:43;;;;;;;36.73;16.53;;;;;2.30;97139.00;;;;8357772;28;20225;-70
2022/03/25 03:43:47;;;;;;;38.33;16.60;;;;;2.30;97134.00;;;;8361830;28;20330;-67
2022/03/25 03:47:50;;;;;;;37.90;15.93;;;;;2.20;97140.00;;;;8370474;28;20323;-69
2022/03/25 03:51:54;;;;;;;46.43;16.43;;;;;2.20;97136.00;;;;8371145;28;20230;-68
2022/03/25 03:55:57;;;;;;;42.87;17.70;;;;;2.20;97135.00;;;;8368197;28;20224;-68
2022/03/25 04:00:01;;;;;;;39.80;16.10;;;;;2.20;97146.00;;;;8366117;28;20231;-69
2022/03/25 04:04:05;;;;;;;40.90;15.50;;;;;2.20;97141.00;;;;8377904;28;20224;-70
2022/03/25 04:08:09;;;;;;;36.33;15.63;;;;;2.10;97137.00;;;;8378321;28;20681;-70
2022/03/25 04:12:13;;;;;;;39.17;15.97;;;;;2.20;97137.00;;;;8381073;28;20231;-69
2022/03/25 04:16:17;;;;;;;39.83;15.97;;;;;2.20;97139.00;;;;8383972;28;20228;-70
2022/03/25 04:20:20;;;;;;;45.53;17.10;;;;;2.20;97133.00;;;;8391957;28;20228;-70
2022/03/25 04:24:24;;;;;;;40.60;16.87;;;;;2.10;97132.00;;;;8388080;28;20224;-70
2022/03/25 04:28:27;;;;;;;40.53;16.80;;;;;2.00;97134.00;;;;8384368;28;20918;-70
2022/03/25 04:32:31;;;;;;;39.37;16.97;;;;;1.90;97134.00;;;;8381012;28;20219;-70
2022/03/25 04:36:35;;;;;;;39.93;17.03;;;;;1.80;97132.00;;;;8383377;28;20692;-67
2022/03/25 04:40:38;;;;;;;41.73;16.33;;;;;1.70;97128.00;;;;8383674;28;20588;-69
2022/03/25 04:44:42;;;;;;;42.53;18.03;;;;;1.60;97143.00;;;;8383889;28;20239;-69
2022/03/25 04:48:46;;;;;;;37.33;15.60;;;;;1.50;97136.00;;;;8385492;28;20233;-66
2022/03/25 04:52:50;;;;;;;40.23;17.30;;;;;1.40;97139.00;;;;8388861;28;20216;-68
2022/03/25 04:56:54;;;;;;;39.03;16.80;;;;;1.40;97139.00;;;;8382173;28;20228;-68
2022/03/25 05:00:57;;;;;;;38.53;16.73;;;;;1.30;97149.00;;;;8382058;28;20223;-69
2022/03/25 05:05:02;;;;;;;42.37;17.13;;;;;1.30;97140.00;;;;8374522;28;20299;-66
2022/03/25 05:09:06;;;;;;;44.30;18.30;;;;;1.30;97155.00;;;;8382272;28;20228;-68
2022/03/25 05:13:09;;;;;;;41.03;16.30;;;;;1.40;97145.00;;;;8386927;28;20234;-70
2022/03/25 05:17:13;;;;;;;38.90;16.57;;;;;1.40;97145.00;;;;8390951;28;20232;-68
2022/03/25 05:21:18;;;;;;;40.63;16.87;;;;;1.40;97158.00;;;;8385889;28;20289;-69
2022/03/25 05:25:22;;;;;;;39.67;16.80;;;;;1.40;97157.00;;;;8381959;28;20303;-68
2022/03/25 05:29:27;;;;;;;46.43;17.53;;;;;1.40;97159.00;;;;8384148;28;20802;-69
2022/03/25 05:33:30;;;;;;;41.27;17.07;;;;;1.50;97149.00;;;;8381126;28;20695;-68
2022/03/25 05:37:36;;;;;;;39.80;16.37;;;;;1.50;97157.00;;;;8379052;28;20230;-68
2022/03/25 05:41:39;;;;;;;37.17;16.07;;;;;1.60;97157.00;;;;8376935;28;20232;-68
2022/03/25 05:45:42;;;;;;;46.07;18.27;;;;;1.70;97166.00;;;;8382485;28;20234;-70
2022/03/25 05:49:46;;;;;;;44.93;18.10;;;;;1.80;97170.00;;;;8381649;28;20227;-70
2022/03/25 05:53:50;;;;;;;52.53;18.40;;;;;2.00;97176.00;;;;8375065;28;21012;-68
2022/03/25 05:57:53;;;;;;;46.87;19.93;;;;;2.30;97172.00;;;;8377740;28;20793;-69
2022/03/25 06:01:56;;;;;;;44.63;17.93;;;;;2.40;97178.00;;;;8378478;28;20790;-69
2022/03/25 06:06:00;;;;;;;45.10;17.13;;;;;2.60;97189.00;;;;8378111;28;20566;-70
2022/03/25 06:10:06;;;;;;;43.17;17.60;;;;;2.70;97192.00;;;;8382818;28;20219;-69
2022/03/25 06:14:09;;;;;;;42.47;18.50;;;;;2.80;97189.00;;;;8380030;28;20223;-71
2022/03/25 06:18:12;;;;;;;42.70;18.80;;;;;2.90;97182.00;;;;8386334;28;20745;-71
2022/03/25 06:22:15;;;;;;;44.23;19.10;;;;;3.00;97184.00;;;;8385358;28;20328;-70
2022/03/25 06:26:20;;;;;;;43.00;19.10;;;;;3.20;97186.00;;;;8379496;28;20234;-68
2022/03/25 06:30:26;;;;;;;55.37;20.43;;;;;3.60;97190.00;;;;8370878;28;21889;-68
2022/03/25 06:34:30;;;;;;;51.43;21.53;;;;;4.10;97207.00;;;;8381166;28;20550;-70
2022/03/25 06:38:33;;;;;;;48.13;20.53;;;;;4.70;97198.00;;;;8388221;28;20621;-68
2022/03/25 06:42:39;;;;;;;52.30;20.37;;;;;5.30;97203.00;;;;8384771;28;20617;-72
2022/03/25 06:46:42;;;;;;;48.83;20.77;;;;;6.00;97209.00;;;;8379037;28;20247;-72
2022/03/25 06:50:46;;;;;;;52.20;21.17;;;;;6.70;97223.00;;;;8376648;28;20225;-69
2022/03/25 06:54:50;;;;;;;49.20;21.47;;;;;7.10;97221.00;;;;8380890;28;20701;-68
2022/03/25 06:58:56;;;;;;;57.77;21.83;;;;;7.50;97221.00;;;;8378619;28;20241;-68
2022/03/25 07:03:00;;;;;;;48.87;19.17;;;;;7.80;97221.00;;;;8379012;28;20283;-68
2022/03/25 07:07:05;;;;;;;49.57;18.83;;;;;8.00;97227.00;;;;8376831;28;20288;-68
2022/03/25 07:11:09;;;;;;;55.00;21.13;;;;;8.30;97233.00;;;;8377138;28;20233;-68
2022/03/25 07:15:14;;;;;;;51.53;21.80;;;;;8.50;97232.00;;;;8371320;28;20230;-68
2022/03/25 07:19:17;;;;;;;46.27;19.50;;;;;8.80;97235.00;;;;8377966;28;20233;-69
2022/03/25 07:23:20;;;;;;;56.27;21.53;;;;;9.00;97235.00;;;;8378566;28;20247;-67
2022/03/25 07:27:24;;;;;;;45.47;20.07;;;;;9.10;97241.00;;;;8377811;28;20272;-69
2022/03/25 07:31:29;;;;;;;47.40;21.57;;;;;9.30;97239.00;;;;8386355;28;20752;-66
2022/03/25 07:35:32;;;;;;;47.27;20.43;;;;;9.60;97244.00;;;;8384924;28;20281;-68
2022/03/25 07:39:35;;;;;;;45.03;19.83;;;;;9.70;97241.00;;;;8384059;28;20252;-67
2022/03/25 07:43:39;;;;;;;47.87;21.10;;;;;9.90;97258.00;;;;8382431;28;20224;-69
2022/03/25 07:47:45;;;;;;;51.20;19.97;;;;;10.10;97257.00;;;;8389535;28;20219;-68
2022/03/25 07:51:48;;;;;;;45.13;20.83;;;;;10.20;97257.00;;;;8379248;28;20231;-70
2022/03/25 07:55:51;;;;;;;39.50;19.13;;;;;10.30;97263.00;;;;8378259;28;20226;-68
2022/03/25 07:59:55;;;;;;;46.43;21.10;;;;;10.30;97252.00;;;;8389937;28;20227;-68
2022/03/25 08:03:59;;;;;;;46.47;19.60;;;;;10.40;97254.00;;;;8382383;28;20976;-67
2022/03/25 08:08:03;;;;;;;48.70;22.53;;;;;10.60;97259.00;;;;8375556;28;20765;-73
2022/03/25 08:12:07;;;;;;;47.67;20.97;;;;;10.70;97269.00;;;;8377489;28;20826;-70
2022/03/25 08:16:11;;;;;;;45.87;21.10;;;;;10.90;97270.00;;;;8385562;28;20622;-73
2022/03/25 08:20:20;;;;;;;47.17;21.30;;;;;11.10;97264.00;;;;8384497;28;20235;-74
2022/03/25 08:28:44;;;;;;;56.70;20.37;;;;;11.60;97283.00;;;;8385755;28;20315;-73
2022/03/25 08:33:08;;;;;;;55.53;21.70;;;;;11.90;97285.00;;;;8384734;28;20326;-73
2022/03/25 08:37:13;;;;;;;47.40;20.70;;;;;12.30;97284.00;;;;8377390;28;20222;-72
2022/03/25 08:41:16;;;;;;;50.43;21.17;;;;;12.60;97284.00;;;;8385714;28;20231;-70
2022/03/25 08:45:20;;;;;;;44.00;21.20;;;;;13.00;97291.00;;;;8381995;28;20231;-74
2022/03/25 08:49:23;;;;;;;44.00;20.55;;;;;13.10;97288.00;;;;8374804;28;20294;-74
2022/03/25 08:53:28;;;;;;;43.78;20.20;;;;;13.40;97296.00;;;;8369212;28;20258;-74
2022/03/25 08:57:36;;;;;;;54.80;22.50;;;;;13.80;97292.00;;;;8396381;28;20230;-74
2022/03/25 09:01:39;;;;;;;48.05;21.20;;;;;14.20;97296.00;;;;8394572;28;20334;-73
2022/03/25 09:05:44;;;;;;;44.10;20.38;;;;;14.60;97290.00;;;;8382403;28;20225;-74
2022/03/25 09:09:48;;;;;;;42.55;20.30;;;;;15.00;97294.00;;;;8382383;28;20242;-74
2022/03/25 09:13:51;;;;;;;43.90;20.03;;;;;15.70;97299.00;;;;8386305;28;20312;-75
2022/03/25 09:17:54;;;;;;;43.70;20.02;;;;;16.30;97304.00;;;;8380726;28;20229;-71
2022/03/25 09:21:57;;;;;;;43.35;21.27;;;;;17.10;97300.00;;;;8379211;28;20745;-74
2022/03/25 09:26:03;;;;;;;44.30;22.02;;;;;17.50;97298.00;;;;8377789;28;20732;-70
2022/03/25 09:30:08;;;;;;;55.67;20.73;;;;;17.60;97299.00;;;;8381635;28;20238;-76
2022/03/25 09:38:52;;;;;;;42.70;19.73;;;;;18.00;97302.00;;;;8375918;28;20686;-80
2022/03/25 09:42:57;;;;;;;44.60;21.42;;;;;18.10;97299.00;;;;8377034;28;20752;-73
2022/03/25 09:47:00;;;;;;;45.83;22.52;;;;;18.40;97302.00;;;;8375301;28;20222;-73
2022/03/25 09:51:03;;;;;;;44.95;21.60;;;;;18.70;97309.00;;;;8379491;28;20242;-72
2022/03/25 09:55:15;;;;;;;46.15;22.95;;;;;18.60;97309.00;;;;8380494;28;20236;-73
2022/03/25 09:59:21;;;;;;;40.80;20.50;;;;;18.60;97315.00;;;;8365515;28;20310;-80
2022/03/25 10:03:27;;;;;;;47.17;22.75;;;;;18.60;97308.00;;;;8381850;28;20778;-72
2022/03/25 10:07:32;;;;;;;47.03;22.05;;;;;18.60;97303.00;;;;8377134;28;20692;-77
2022/03/25 10:11:37;;;;;;;49.10;22.17;;;;;18.70;97312.00;;;;8377210;28;20231;-73
2022/03/25 10:15:41;;;;;;;42.92;20.50;;;;;18.60;97307.00;;;;8385106;28;20798;-70
2022/03/25 10:19:49;;;;;;;45.90;22.52;;;;;18.80;97301.00;;;;8366746;28;20258;-79
2022/03/25 10:23:52;;;;;;;39.63;20.55;;;;;19.40;97292.00;;;;8380062;28;20220;-73
2022/03/25 10:27:56;;;;;;;42.90;22.58;;;;;19.20;97287.00;;;;8382934;28;20248;-77
2022/03/25 10:32:08;;;;;;;38.50;20.90;;;;;19.20;97291.00;;;;8373883;28;20230;-73
2022/03/25 10:36:14;;;;;;;37.45;20.15;;;;;19.60;97289.00;;;;8378957;28;20323;-80
2022/03/25 10:40:17;;;;;;;39.55;20.90;;;;;19.70;97303.00;;;;8378450;28;20314;-77
2022/03/25 10:44:34;;;;;;;201.35;29.85;;;;;19.80;97284.00;;;;8373227;28;20220;-73
2022/03/25 10:48:39;;;;;;;40.42;21.15;;;;;19.40;97288.00;;;;8382051;28;20227;-73
2022/03/25 10:52:43;;;;;;;39.63;19.63;;;;;19.20;97282.00;;;;8376493;28;20241;-80
2022/03/25 10:56:48;;;;;;;41.85;20.23;;;;;19.20;97281.00;;;;8378807;28;20224;-73
2022/03/25 11:00:51;;;;;;;38.67;19.35;;;;;19.50;97285.00;;;;8378770;28;20700;-73
2022/03/25 11:04:57;;;;;;;44.67;22.70;;;;;19.30;97290.00;;;;8386793;28;20234;-76
2022/03/25 11:09:00;;;;;;;38.78;19.95;;;;;19.00;97289.00;;;;8390288;28;20222;-73
2022/03/25 11:13:05;;;;;;;51.78;21.60;;;;;19.10;97268.00;;;;8395233;28;20323;-75
2022/03/25 11:17:09;;;;;;;43.45;22.80;;;;;19.00;97263.00;;;;8385012;28;20235;-79
2022/03/25 11:21:16;;;;;;;41.35;21.60;;;;;18.90;97270.00;;;;8378240;28;20232;-66
2022/03/25 11:25:21;;;;;;;43.22;20.77;;;;;19.10;97265.00;;;;8377543;28;20607;-64
2022/03/25 11:29:27;;;;;;;39.72;20.80;;;;;18.80;97265.00;;;;8389101;28;20219;-72
2022/03/25 11:33:31;;;;;;;42.53;21.15;;;;;18.70;97276.00;;;;8397446;28;20639;-72
2022/03/25 11:37:36;;;;;;;43.00;21.70;;;;;19.00;97270.00;;;;8389905;28;20234;-73
2022/03/25 11:41:39;;;;;;;42.63;21.48;;;;;18.90;97257.00;;;;8385846;28;20237;-71
2022/03/25 11:45:43;;;;;;;42.95;21.65;;;;;18.70;97262.00;;;;8391754;28;20649;-72
2022/03/25 11:49:46;;;;;;;39.80;21.45;;;;;18.90;97259.00;;;;8401362;28;20227;-74
2022/03/25 11:53:51;;;;;;;46.60;21.20;;;;;19.00;97248.00;;;;8396913;28;20230;-71
2022/03/25 11:58:14;;;;;;;42.03;21.40;;;;;18.90;97256.00;;;;8384229;28;20227;-72
2022/03/25 12:02:40;;;;;;;42.72;21.52;;;;;18.80;97247.00;;;;8384446;28;20313;-72
2022/03/25 12:07:02;;;;;;;39.08;21.58;;;;;18.50;97255.00;;;;8382255;28;20276;-72
2022/03/25 12:11:10;;;;;;;39.78;20.98;;;;;18.50;97246.00;;;;8387019;28;20280;-71
2022/03/25 12:15:14;;;;;;;49.00;21.63;;;;;18.40;97246.00;;;;8393613;28;20231;-71
2022/03/25 12:20:03;;;;;;;40.25;19.98;;;;;18.40;97245.00;;;;8383245;28;20239;-72
2022/03/25 12:24:07;;;;;;;38.40;20.05;;;;;18.50;97242.00;;;;8306628;28;20228;-72
2022/03/25 12:28:11;;;;;;;43.25;21.17;;;;;18.40;97234.00;;;;8383907;28;20242;-72
2022/03/25 12:32:17;;;;;;;47.33;21.15;;;;;18.40;97229.00;;;;8387245;28;20751;-72
2022/03/25 12:36:20;;;;;;;44.75;21.13;;;;;18.50;97225.00;;;;8386604;28;20228;-73
2022/03/25 12:40:26;;;;;;;37.65;19.67;;;;;18.50;97232.00;;;;8382669;28;20212;-73
2022/03/25 12:44:32;;;;;;;41.95;22.33;;;;;18.40;97222.00;;;;8389450;28;20310;-74
2022/03/25 12:48:39;;;;;;;39.03;21.40;;;;;18.50;97217.00;;;;8383939;28;20701;-73
2022/03/25 12:52:43;;;;;;;41.53;21.42;;;;;18.70;97215.00;;;;8382890;28;20703;-73
2022/03/25 12:56:54;;;;;;;43.67;22.08;;;;;18.90;97203.00;;;;8394919;28;20303;-74
2022/03/25 13:01:19;;;;;;;47.58;22.38;;;;;19.00;97200.00;;;;8385935;28;20239;-71
2022/03/25 13:05:25;;;;;;;39.42;20.10;;;;;19.00;97195.00;;;;8379265;28;20228;-72
2022/03/25 13:09:28;;;;;;;43.90;22.23;;;;;19.30;97194.00;;;;8388551;28;20231;-73
2022/03/25 13:13:38;;;;;;;41.55;21.40;;;;;19.30;97193.00;;;;8383302;28;20247;-73
2022/03/25 13:17:48;;;;;;;48.05;21.95;;;;;19.30;97192.00;;;;8375072;28;20359;-73
2022/03/25 13:21:52;;;;;;;51.85;25.08;;;;;19.40;97187.00;;;;8382561;28;20231;-73
2022/03/25 13:25:57;;;;;;;55.30;23.77;;;;;19.50;97182.00;;;;8383476;28;20354;-72
2022/03/25 13:30:02;;;;;;;48.35;22.42;;;;;19.60;97178.00;;;;8398008;28;20262;-73
2022/03/25 13:34:08;;;;;;;49.97;23.20;;;;;19.70;97178.00;;;;8382187;28;20334;-74
2022/03/25 13:38:13;;;;;;;42.47;22.35;;;;;19.70;97173.00;;;;8381339;28;20250;-73
2022/03/25 13:42:16;;;;;;;44.78;22.58;;;;;19.80;97182.00;;;;8382668;28;20227;-75
2022/03/25 13:46:22;;;;;;;43.20;22.33;;;;;19.70;97179.00;;;;8383353;28;20216;-71
2022/03/25 13:50:26;;;;;;;43.22;22.85;;;;;19.60;97180.00;;;;8383722;28;20228;-73
2022/03/25 13:54:30;;;;;;;47.97;22.77;;;;;19.50;97171.00;;;;8383902;28;20220;-72
2022/03/25 13:58:34;;;;;;;44.33;23.17;;;;;19.50;97158.00;;;;8380681;28;20211;-71
2022/03/25 14:02:41;;;;;;;36.30;18.85;;;;;19.50;97169.00;;;;8380883;28;20246;-72
2022/03/25 14:06:48;;;;;;;41.45;21.27;;;;;19.80;97168.00;;;;8382712;28;20223;-73
2022/03/25 14:11:01;;;;;;;51.55;23.55;;;;;20.10;97166.00;;;;8382945;28;20631;-73
2022/03/25 14:15:06;;;;;;;44.45;22.83;;;;;20.40;97165.00;;;;8383162;28;20224;-71
2022/03/25 14:19:18;;;;;;;44.83;22.23;;;;;20.30;97168.00;;;;8376596;28;20224;-72
2022/03/25 14:23:23;;;;;;;43.25;22.42;;;;;20.40;97160.00;;;;8374618;28;20589;-71
2022/03/25 14:27:26;;;;;;;47.83;22.52;;;;;20.40;97160.00;;;;8381789;28;20681;-71
2022/03/25 14:31:29;;;;;;;47.47;22.45;;;;;20.40;97163.00;;;;8381935;28;20235;-72
2022/03/25 14:35:33;;;;;;;47.17;22.88;;;;;20.40;97157.00;;;;8370991;28;20231;-70
2022/03/25 14:39:37;;;;;;;42.85;22.13;;;;;20.50;97159.00;;;;8380526;28;20235;-71
2022/03/25 14:43:40;;;;;;;41.58;21.92;;;;;20.30;97153.00;;;;8376407;28;20232;-72
2022/03/25 14:47:43;;;;;;;42.60;21.08;;;;;20.30;97151.00;;;;8381497;28;20220;-72
2022/03/25 14:51:47;;;;;;;41.45;22.38;;;;;20.30;97147.00;;;;8381585;28;20227;-72
2022/03/25 14:55:52;;;;;;;43.42;23.70;;;;;20.20;97144.00;;;;8381769;28;20224;-72
2022/03/25 14:59:56;;;;;;;43.25;22.50;;;;;20.20;97146.00;;;;8382128;28;20307;-71
2022/03/25 15:03:59;;;;;;;45.28;22.48;;;;;20.30;97148.00;;;;8382129;28;20242;-72
2022/03/25 15:08:02;;;;;;;45.75;22.98;;;;;20.20;97143.00;;;;8382658;28;20797;-72
2022/03/25 15:12:09;;;;;;;39.97;22.17;;;;;20.00;97148.00;;;;8381410;28;20309;-72
2022/03/25 15:16:15;;;;;;;41.22;22.42;;;;;19.90;97153.00;;;;8381673;28;20274;-72
2022/03/25 15:20:18;;;;;;;45.58;21.48;;;;;19.70;97157.00;;;;8382211;28;20372;-72
2022/03/25 15:24:21;;;;;;;40.47;21.25;;;;;19.70;97149.00;;;;8381532;28;20223;-72
2022/03/25 15:28:26;;;;;;;44.63;22.42;;;;;19.60;97151.00;;;;8381781;28;20235;-71
2022/03/25 15:36:50;;;;;;;46.30;22.98;;;;;19.50;97156.00;;;;8382062;28;20227;-71
2022/03/25 15:40:53;;;;;;;74.47;23.30;;;;;19.50;97148.00;;;;8381881;28;20315;-73
2022/03/25 15:44:58;;;;;;;48.85;23.08;;;;;19.50;97147.00;;;;8381390;28;20223;-72
2022/03/25 15:49:02;;;;;;;40.03;20.80;;;;;19.40;97149.00;;;;8382794;28;20231;-72
2022/03/25 15:53:07;;;;;;;40.35;21.00;;;;;19.30;97151.00;;;;8387092;28;20235;-72
2022/03/25 15:57:10;;;;;;;42.33;22.55;;;;;19.20;97149.00;;;;8386423;28;20235;-72
2022/03/25 16:01:15;;;;;;;45.65;21.63;;;;;19.10;97149.00;;;;8387107;28;20227;-71
2022/03/25 16:05:19;;;;;;;46.25;22.05;;;;;19.10;97154.00;;;;8387044;28;20956;-73
2022/03/25 16:09:22;;;;;;;46.42;22.00;;;;;19.20;97157.00;;;;8387059;28;20315;-71
2022/03/25 16:13:29;;;;;;;44.92;22.02;;;;;19.20;97153.00;;;;8377894;28;20247;-73
2022/03/25 16:17:34;;;;;;;56.20;22.08;;;;;19.20;97157.00;;;;8380222;28;20239;-74
2022/03/25 16:21:37;;;;;;;41.80;20.95;;;;;19.10;97161.00;;;;8385224;28;20227;-73
2022/03/25 16:25:41;;;;;;;45.28;22.75;;;;;19.00;97160.00;;;;8384508;28;20236;-72
2022/03/25 16:29:44;;;;;;;39.90;20.88;;;;;18.70;97166.00;;;;8393425;28;20231;-72
2022/03/25 16:33:54;;;;;;;41.10;21.02;;;;;18.30;97158.00;;;;8388217;28;20219;-73
2022/03/25 16:37:58;;;;;;;43.05;20.10;;;;;18.00;97162.00;;;;8387980;28;20224;-74
2022/03/25 16:42:01;;;;;;;44.53;21.98;;;;;17.70;97165.00;;;;8376017;28;20308;-79
2022/03/25 16:46:05;;;;;;;43.70;20.70;;;;;17.50;97164.00;;;;8378405;28;21878;-78
2022/03/25 16:50:09;;;;;;;39.33;19.92;;;;;17.30;97161.00;;;;8376296;28;20306;-73
2022/03/25 16:54:12;;;;;;;41.88;21.15;;;;;17.10;97165.00;;;;8382482;28;20228;-74
2022/03/25 16:58:16;;;;;;;43.78;20.73;;;;;16.90;97162.00;;;;8374881;28;20293;-75
2022/03/25 17:02:28;;;;;;;41.90;20.73;;;;;16.80;97163.00;;;;8372608;28;20574;-71
2022/03/25 17:06:34;;;;;;;39.75;20.65;;;;;16.60;97166.00;;;;8391743;28;20306;-73
2022/03/25 17:10:38;;;;;;;41.55;20.88;;;;;16.40;97172.00;;;;8383006;28;20378;-79
2022/03/25 17:14:42;;;;;;;43.30;19.98;;;;;16.20;97161.00;;;;8384478;28;20262;-76
2022/03/25 17:18:45;;;;;;;45.03;21.42;;;;;16.00;97172.00;;;;8379444;28;20315;-76
2022/03/25 17:22:50;;;;;;;43.42;21.23;;;;;15.80;97172.00;;;;8379682;28;20872;-75
2022/03/25 17:26:53;;;;;;;38.67;19.05;;;;;15.40;97173.00;;;;8379318;28;20270;-73
2022/03/25 17:30:56;;;;;;;43.35;20.27;;;;;14.90;97174.00;;;;8373375;28;20270;-72
2022/03/25 17:35:00;;;;;;;47.55;20.10;;;;;14.40;97179.00;;;;8381084;28;20239;-73
2022/03/25 17:39:05;;;;;;;43.03;19.60;;;;;13.90;97181.00;;;;8374989;28;20236;-74
2022/03/25 17:43:11;;;;;;;160.52;27.48;;;;;13.40;97183.00;;;;8373683;28;20706;-76
2022/03/25 17:47:14;;;;;;;48.08;20.88;;;;;12.90;97184.00;;;;8376624;28;20243;-75
2022/03/25 17:51:18;;;;;;;45.75;20.55;;;;;12.50;97183.00;;;;8377653;28;20302;-75
2022/03/25 17:55:25;;;;;;;46.88;21.70;;;;;12.10;97181.00;;;;8378417;28;20230;-76
2022/03/25 17:59:28;;;;;;;45.38;20.23;;;;;11.70;97183.00;;;;8371915;28;20271;-74
2022/03/25 18:03:32;;;;;;;52.28;20.42;;;;;11.50;97189.00;;;;8377892;28;20305;-74
2022/03/25 18:07:35;;;;;;;44.03;19.08;;;;;11.30;97197.00;;;;8377005;28;20209;-75
2022/03/25 18:11:40;;;;;;;42.22;18.63;;;;;11.30;97200.00;;;;8376474;28;20227;-75
2022/03/25 18:15:44;;;;;;;42.17;17.97;;;;;11.20;97192.00;;;;8374880;28;20230;-70
2022/03/25 18:19:49;;;;;;;43.97;20.52;;;;;11.00;97202.00;;;;8381215;28;20232;-76
2022/03/25 18:23:53;;;;;;;44.00;19.60;;;;;10.90;97207.00;;;;8378938;28;20561;-77
2022/03/25 18:27:58;;;;;;;47.35;19.63;;;;;10.80;97206.00;;;;8370859;28;20228;-75
2022/03/25 18:32:02;;;;;;;51.87;20.90;;;;;10.70;97212.00;;;;8386982;28;20224;-75
2022/03/25 18:36:05;;;;;;;39.33;18.40;;;;;10.90;97219.00;;;;8369415;28;20569;-75
2022/03/25 18:40:12;;;;;;;41.67;19.00;;;;;11.30;97222.00;;;;8375224;28;20232;-75
2022/03/25 18:44:17;;;;;;;41.93;19.10;;;;;11.60;97221.00;;;;8371475;28;20234;-74
2022/03/25 18:48:20;;;;;;;44.75;20.77;;;;;11.80;97226.00;;;;8374243;28;20232;-75
2022/03/25 18:52:25;;;;;;;43.80;20.33;;;;;11.80;97229.00;;;;8376919;28;20678;-73
2022/03/25 18:56:28;;;;;;;44.28;19.30;;;;;11.70;97229.00;;;;8374042;28;20220;-76
2022/03/25 19:00:32;;;;;;;48.03;20.30;;;;;11.50;97232.00;;;;8375604;28;20303;-75
2022/03/25 19:04:36;;;;;;;47.72;20.13;;;;;11.30;97231.00;;;;8374173;28;20224;-75
2022/03/25 19:08:40;;;;;;;44.45;20.88;;;;;11.10;97235.00;;;;8365513;28;20586;-75
2022/03/25 19:12:43;;;;;;;46.63;20.23;;;;;10.90;97244.00;;;;8376274;28;20238;-75
2022/03/25 19:16:48;;;;;;;44.63;19.80;;;;;10.60;97243.00;;;;8376324;28;20219;-76
2022/03/25 19:20:51;;;;;;;47.37;21.20;;;;;10.50;97246.00;;;;8377055;28;20302;-76
2022/03/25 19:24:55;;;;;;;49.70;20.77;;;;;10.30;97255.00;;;;8382544;28;20224;-75
2022/03/25 19:28:58;;;;;;;47.00;19.93;;;;;10.20;97258.00;;;;8378544;28;20217;-75
2022/03/25 19:33:03;;;;;;;49.53;20.77;;;;;10.00;97249.00;;;;8380779;28;20223;-75
2022/03/25 19:37:06;;;;;;;50.37;21.27;;;;;10.00;97259.00;;;;8380880;28;20236;-75
2022/03/25 19:41:10;;;;;;;47.57;21.70;;;;;9.90;97245.00;;;;8376638;28;20234;-76
2022/03/25 19:45:14;;;;;;;56.83;22.67;;;;;9.80;97259.00;;;;8374654;28;20263;-75
2022/03/25 19:49:19;;;;;;;51.73;21.00;;;;;9.70;97249.00;;;;8370339;28;20337;-76
2022/03/25 19:53:22;;;;;;;49.23;20.27;;;;;9.60;97261.00;;;;8374517;28;20250;-75
2022/03/25 19:57:26;;;;;;;49.27;22.17;;;;;9.60;97268.00;;;;8377098;28;20238;-75
2022/03/25 20:01:29;;;;;;;51.23;22.27;;;;;9.50;97268.00;;;;8378024;28;20229;-76
2022/03/25 20:05:34;;;;;;;48.70;21.23;;;;;9.60;97267.00;;;;8379927;28;20281;-75
2022/03/25 20:09:38;;;;;;;43.83;19.60;;;;;9.90;97266.00;;;;8375208;28;20228;-77
2022/03/25 20:13:42;;;;;;;48.23;20.20;;;;;10.10;97272.00;;;;8380810;28;20568;-74